createdAt,value
2023-02-02T00:02:01.675Z,3.19
2023-02-02T00:04:33.925Z,3.20
2023-02-02T00:07:05.296Z,3.20
2023-02-02T00:09:37.357Z,3.20
2023-02-02T00:12:07.133Z,3.23
2023-02-02T00:14:36.555Z,3.23
2023-02-02T00:17:06.117Z,3.24
2023-02-02T00:19:35.484Z,3.24
2023-02-02T00:22:05.053Z,3.25
2023-02-02T00:24:37.063Z,3.28
2023-02-02T00:27:06.846Z,3.31
2023-02-02T00:29:36.357Z,3.30
2023-02-02T00:32:05.834Z,3.30
2023-02-02T00:34:35.200Z,3.31
2023-02-02T00:37:04.624Z,3.32
2023-02-02T00:39:34.047Z,3.31
2023-02-02T00:42:06.144Z,3.32
2023-02-02T00:44:48.078Z,3.33
2023-02-02T00:47:18.013Z,3.35
2023-02-02T00:49:47.439Z,3.36
2023-02-02T00:52:17.058Z,3.40
2023-02-02T00:54:48.952Z,3.39
2023-02-02T00:57:21.250Z,3.40
2023-02-02T00:59:51.050Z,3.40
2023-02-02T01:02:20.452Z,3.38
2023-02-02T01:04:49.846Z,3.39
2023-02-02T01:07:19.258Z,3.34
2023-02-02T01:09:48.636Z,3.38
2023-02-02T01:12:18.067Z,3.32
2023-02-02T01:14:50.042Z,3.32
2023-02-02T01:17:19.832Z,3.23
2023-02-02T01:19:49.228Z,3.19
2023-02-02T01:22:18.718Z,3.17
2023-02-02T01:24:48.134Z,3.15
2023-02-02T01:27:17.573Z,3.13
2023-02-02T01:29:47.042Z,3.06
2023-02-02T01:32:19.039Z,3.05
2023-02-02T01:34:48.439Z,3.04
2023-02-02T01:37:17.900Z,3.03
2023-02-02T01:39:47.307Z,3.02
2023-02-02T01:42:21.575Z,3.01
2023-02-02T01:45:08.513Z,3.03
2023-02-02T01:47:44.156Z,3.06
2023-02-02T01:50:15.117Z,3.07
2023-02-02T01:52:46.698Z,3.08
2023-02-02T01:55:17.625Z,3.08
2023-02-02T01:57:50.121Z,3.06
2023-02-02T02:00:24.931Z,3.07
2023-02-02T02:03:01.643Z,3.04
2023-02-02T02:05:33.665Z,3.04
2023-02-02T02:08:08.684Z,3.05
2023-02-02T02:10:38.102Z,3.01
2023-02-02T02:13:08.330Z,2.98
2023-02-02T02:15:56.026Z,2.96
2023-02-02T02:18:34.203Z,2.96
2023-02-02T02:21:47.811Z,2.94
2023-02-02T02:25:00.016Z,2.92
2023-02-02T02:28:00.995Z,2.90
2023-02-02T02:30:42.427Z,2.91
2023-02-02T02:33:18.496Z,2.91
2023-02-02T02:35:52.850Z,2.89
2023-02-02T02:38:26.514Z,2.86
2023-02-02T02:40:58.614Z,2.82
2023-02-02T02:43:32.086Z,2.84
2023-02-02T02:46:01.804Z,2.81
2023-02-02T02:48:34.345Z,2.79
2023-02-02T02:51:33.611Z,2.80
2023-02-02T02:54:03.470Z,2.82
2023-02-02T02:56:35.827Z,2.85
2023-02-02T02:59:09.945Z,2.86
2023-02-02T03:01:42.424Z,2.91
2023-02-02T03:04:19.146Z,2.94
2023-02-02T03:06:53.102Z,2.93
2023-02-02T03:09:26.232Z,2.83
2023-02-02T03:11:55.770Z,2.34
2023-02-02T03:14:25.218Z,2.12
2023-02-02T03:16:55.324Z,2.06
2023-02-02T03:19:27.608Z,2.08
2023-02-02T03:21:57.090Z,2.09
2023-02-02T03:24:26.550Z,2.09
2023-02-02T03:26:56.493Z,2.09
2023-02-02T03:29:25.924Z,2.12
2023-02-02T03:31:55.343Z,2.16
2023-02-02T03:34:27.625Z,2.18
2023-02-02T03:36:57.050Z,2.19
2023-02-02T03:39:26.560Z,2.21
2023-02-02T03:41:56.027Z,2.24
2023-02-02T03:44:25.457Z,2.25
2023-02-02T03:46:56.619Z,2.28
2023-02-02T03:49:29.594Z,2.39
2023-02-02T03:51:59.125Z,2.42
2023-02-02T03:54:28.558Z,2.46
2023-02-02T03:56:58.030Z,2.52
2023-02-02T03:59:27.460Z,2.58
2023-02-02T04:01:56.973Z,2.58
2023-02-02T04:04:29.027Z,2.59
2023-02-02T04:06:58.734Z,2.59
2023-02-02T04:09:28.320Z,2.62
2023-02-02T04:11:57.808Z,2.63
2023-02-02T04:14:27.207Z,2.64
2023-02-02T04:16:56.660Z,2.66
2023-02-02T04:19:28.649Z,2.64
2023-02-02T04:21:58.068Z,2.64
2023-02-02T04:24:27.486Z,2.65
2023-02-02T04:26:56.936Z,2.62
2023-02-02T04:29:26.606Z,2.61
2023-02-02T04:31:56.214Z,2.61
2023-02-02T04:34:25.655Z,2.62
2023-02-02T04:36:57.673Z,2.60
2023-02-02T04:39:27.150Z,2.59
2023-02-02T04:41:56.539Z,2.59
2023-02-02T04:44:25.978Z,2.59
2023-02-02T04:46:55.688Z,2.62
2023-02-02T04:49:25.098Z,2.64
2023-02-02T04:51:57.206Z,2.62
2023-02-02T04:54:26.624Z,2.61
2023-02-02T04:56:56.937Z,2.64
2023-02-02T04:59:26.517Z,2.64
2023-02-02T05:01:55.885Z,2.63
2023-02-02T05:04:25.458Z,2.66
2023-02-02T05:06:57.531Z,2.67
2023-02-02T05:09:27.411Z,2.67
2023-02-02T05:11:56.828Z,2.69
2023-02-02T05:14:26.203Z,2.68
2023-02-02T05:16:56.215Z,2.66
2023-02-02T05:19:25.716Z,2.65
2023-02-02T05:21:57.930Z,2.67
2023-02-02T05:24:27.766Z,2.65
2023-02-02T05:27:00.593Z,2.65
2023-02-02T05:29:30.213Z,2.62
2023-02-02T05:31:59.803Z,2.61
2023-02-02T05:34:29.251Z,2.57
2023-02-02T05:37:01.272Z,2.55
2023-02-02T05:39:30.687Z,2.53
2023-02-02T05:42:00.122Z,2.54
2023-02-02T05:44:29.515Z,3.34
2023-02-02T05:46:59.048Z,2.94
2023-02-02T05:49:28.695Z,2.94
2023-02-02T05:52:03.266Z,3.27
2023-02-02T05:54:32.686Z,3.01
2023-02-02T05:57:03.183Z,2.95
2023-02-02T05:59:32.559Z,3.05
2023-02-02T06:02:01.976Z,3.20
2023-02-02T06:04:31.383Z,2.90
2023-02-02T06:07:03.410Z,3.25
2023-02-02T06:09:32.787Z,3.56
2023-02-02T06:12:02.178Z,3.21
2023-02-02T06:14:31.732Z,2.94
2023-02-02T06:17:01.197Z,2.95
2023-02-02T06:19:30.894Z,2.87
2023-02-02T06:22:03.018Z,2.87
2023-02-02T06:24:32.394Z,2.87
2023-02-02T06:27:01.809Z,2.84
2023-02-02T06:29:31.294Z,2.80
2023-02-02T06:32:01.052Z,2.82
2023-02-02T06:34:30.657Z,2.83
2023-02-02T06:37:00.593Z,2.82
2023-02-02T06:39:32.607Z,2.82
2023-02-02T06:42:11.867Z,2.84
2023-02-02T06:44:49.811Z,2.84
2023-02-02T06:47:19.265Z,2.84
2023-02-02T06:49:48.645Z,2.81
2023-02-02T06:52:18.064Z,2.80
2023-02-02T06:54:50.302Z,2.80
2023-02-02T06:57:20.043Z,2.77
2023-02-02T06:59:50.687Z,2.73
2023-02-02T07:02:20.187Z,2.69
2023-02-02T07:04:49.636Z,2.67
2023-02-02T07:07:19.032Z,2.67
2023-02-02T07:09:58.027Z,2.67
2023-02-02T07:12:28.050Z,2.66
2023-02-02T07:14:59.507Z,2.61
2023-02-02T07:17:31.707Z,2.56
2023-02-02T07:20:01.250Z,2.54
2023-02-02T07:22:30.676Z,2.52
2023-02-02T07:25:02.671Z,2.50
2023-02-02T07:27:33.037Z,2.50
2023-02-02T07:30:02.740Z,2.51
2023-02-02T07:32:32.122Z,2.56
2023-02-02T07:35:01.488Z,2.49
2023-02-02T07:37:30.989Z,2.48
2023-02-02T07:40:03.017Z,2.53
2023-02-02T07:42:32.391Z,2.58
2023-02-02T07:45:26.631Z,2.57
2023-02-02T07:47:51.269Z,2.57
2023-02-02T07:50:21.071Z,2.59
2023-02-02T07:52:50.482Z,2.62
2023-02-02T07:55:23.068Z,2.62
2023-02-02T07:57:55.475Z,2.65
2023-02-02T08:00:26.853Z,2.65
2023-02-02T08:02:56.703Z,2.64
2023-02-02T08:05:26.433Z,2.62
2023-02-02T08:07:56.000Z,2.65
2023-02-02T08:10:28.248Z,2.64
2023-02-02T08:12:57.676Z,2.67
2023-02-02T08:15:27.326Z,2.67
2023-02-02T08:17:56.848Z,2.68
2023-02-02T08:20:26.515Z,2.66
2023-02-02T08:22:55.929Z,2.68
2023-02-02T08:25:28.404Z,2.67
2023-02-02T08:27:58.771Z,2.72
2023-02-02T08:30:28.497Z,2.79
2023-02-02T08:32:58.091Z,2.80
2023-02-02T08:35:27.557Z,2.95
2023-02-02T08:37:56.939Z,3.03
2023-02-02T08:40:28.929Z,3.19
2023-02-02T08:42:59.904Z,3.78
2023-02-02T08:46:02.397Z,3.89
2023-02-02T08:48:19.910Z,3.57
2023-02-02T08:50:55.124Z,3.40
2023-02-02T08:53:24.857Z,3.42
2023-02-02T08:56:04.217Z,3.43
2023-02-02T08:58:34.081Z,3.39
2023-02-02T09:01:07.663Z,3.41
2023-02-02T09:03:40.143Z,3.50
2023-02-02T09:06:11.545Z,3.55
2023-02-02T09:08:41.172Z,3.50
2023-02-02T09:11:15.828Z,3.53
2023-02-02T09:13:47.588Z,3.54
2023-02-02T09:16:18.515Z,3.46
2023-02-02T09:18:48.463Z,3.57
2023-02-02T09:21:19.340Z,3.54
2023-02-02T09:23:50.604Z,3.62
2023-02-02T09:26:24.150Z,3.63
2023-02-02T09:28:55.784Z,3.64
2023-02-02T09:31:25.864Z,3.67
2023-02-02T09:33:55.531Z,3.65
2023-02-02T09:36:27.234Z,3.72
2023-02-02T09:38:57.028Z,3.83
2023-02-02T09:41:55.947Z,3.78
2023-02-02T09:44:35.490Z,3.79
2023-02-02T09:47:11.247Z,3.82
2023-02-02T09:49:44.848Z,3.87
2023-02-02T09:52:16.790Z,3.88
2023-02-02T09:54:47.968Z,3.90
2023-02-02T09:57:23.879Z,3.94
2023-02-02T09:59:55.106Z,4.49
2023-02-02T10:02:27.321Z,5.13
2023-02-02T10:04:59.210Z,4.77
2023-02-02T10:07:33.978Z,4.91
2023-02-02T10:10:08.050Z,4.86
2023-02-02T10:12:47.409Z,4.40
2023-02-02T10:15:24.428Z,4.38
2023-02-02T10:17:56.401Z,4.28
2023-02-02T10:20:34.471Z,4.27
2023-02-02T10:23:12.376Z,4.14
2023-02-02T10:25:42.653Z,4.14
2023-02-02T10:28:20.365Z,4.18
2023-02-02T10:30:55.896Z,4.13
2023-02-02T10:33:34.145Z,4.22
2023-02-02T10:36:09.530Z,4.31
2023-02-02T10:38:42.790Z,4.28
2023-02-02T10:41:19.916Z,4.24
2023-02-02T10:44:04.740Z,4.31
2023-02-02T10:46:36.799Z,4.42
2023-02-02T10:49:29.532Z,4.51
2023-02-02T10:52:02.587Z,4.53
2023-02-02T10:54:57.361Z,4.49
2023-02-02T10:57:36.666Z,4.33
2023-02-02T11:00:17.811Z,4.28
2023-02-02T11:02:47.691Z,4.28
2023-02-02T11:05:34.387Z,4.35
2023-02-02T11:08:03.844Z,4.44
2023-02-02T11:10:35.180Z,4.56
2023-02-02T11:13:05.426Z,4.59
2023-02-02T11:15:37.503Z,4.52
2023-02-02T11:18:18.234Z,4.66
2023-02-02T11:20:48.162Z,4.57
2023-02-02T11:23:21.805Z,4.55
2023-02-02T11:26:01.313Z,4.55
2023-02-02T11:28:35.087Z,4.62
2023-02-02T11:31:07.546Z,4.68
2023-02-02T11:33:38.416Z,4.69
2023-02-02T11:36:10.601Z,4.69
2023-02-02T11:38:40.293Z,4.65
2023-02-02T11:41:13.116Z,4.71
2023-02-02T11:43:44.428Z,4.73
2023-02-02T11:46:24.361Z,4.67
2023-02-02T11:48:59.499Z,4.56
2023-02-02T11:51:30.053Z,4.50
2023-02-02T11:54:06.424Z,4.56
2023-02-02T11:56:38.381Z,4.66
2023-02-02T11:59:08.069Z,4.68
2023-02-02T12:01:44.088Z,4.67
2023-02-02T12:04:27.818Z,4.71
2023-02-02T12:06:57.343Z,4.80
2023-02-02T12:09:28.382Z,4.87
2023-02-02T12:12:04.923Z,4.77
2023-02-02T12:14:41.966Z,4.76
2023-02-02T12:17:23.415Z,4.81
2023-02-02T12:20:16.394Z,4.91
2023-02-02T12:23:07.749Z,5.00
2023-02-02T12:25:57.835Z,5.10
2023-02-02T12:28:35.918Z,5.12
2023-02-02T12:31:10.409Z,5.18
2023-02-02T12:33:49.100Z,5.17
2023-02-02T12:36:26.459Z,5.31
2023-02-02T12:39:20.477Z,5.46
2023-02-02T12:42:11.876Z,5.42
2023-02-02T12:44:51.178Z,5.25
2023-02-02T12:47:25.831Z,5.39
2023-02-02T12:50:07.951Z,5.45
2023-02-02T12:52:47.658Z,5.21
2023-02-02T12:55:25.853Z,4.80
2023-02-02T12:58:06.404Z,4.69
2023-02-02T13:00:56.888Z,4.65
2023-02-02T13:03:39.052Z,4.51
2023-02-02T13:06:33.501Z,4.52
2023-02-02T13:09:05.050Z,4.99
2023-02-02T13:11:40.204Z,5.38
2023-02-02T13:14:13.081Z,5.89
2023-02-02T13:16:48.617Z,6.13
2023-02-02T13:19:26.522Z,6.48
2023-02-02T13:22:00.620Z,6.15
2023-02-02T13:24:31.491Z,5.74
2023-02-02T13:27:04.148Z,6.03
2023-02-02T13:29:45.999Z,6.21
2023-02-02T13:32:22.547Z,6.70
2023-02-02T13:34:55.073Z,6.48
2023-02-02T13:37:32.135Z,6.49
2023-02-02T13:40:03.392Z,6.57
2023-02-02T13:42:42.113Z,6.58
2023-02-02T13:45:24.490Z,6.70
2023-02-02T13:47:57.729Z,7.06
2023-02-02T13:50:30.531Z,7.09
2023-02-02T13:53:31.237Z,7.17
2023-02-02T13:56:11.319Z,7.03
2023-02-02T13:58:48.443Z,6.78
2023-02-02T14:01:18.238Z,6.42
2023-02-02T14:03:55.099Z,6.24
2023-02-02T14:06:26.163Z,5.89
2023-02-02T14:08:59.896Z,5.62
2023-02-02T14:11:32.284Z,5.67
2023-02-02T14:14:15.804Z,5.58
2023-02-02T14:16:55.830Z,5.51
2023-02-02T14:19:53.623Z,5.36
2023-02-02T14:22:41.533Z,5.59
2023-02-02T14:25:41.590Z,5.68
2023-02-02T14:28:15.955Z,5.60
2023-02-02T14:30:45.472Z,5.47
2023-02-02T14:33:30.245Z,5.38
2023-02-02T14:36:08.020Z,5.52
2023-02-02T14:38:58.909Z,5.66
2023-02-02T14:41:50.104Z,5.73
2023-02-02T14:44:22.177Z,5.66
2023-02-02T14:46:51.645Z,5.69
2023-02-02T14:49:24.082Z,5.74
2023-02-02T14:51:56.509Z,5.76
2023-02-02T14:54:32.223Z,5.81
2023-02-02T14:57:03.706Z,5.81
2023-02-02T14:59:38.894Z,5.79
2023-02-02T15:02:18.437Z,5.68
2023-02-02T15:04:49.044Z,5.68
2023-02-02T15:07:40.611Z,5.77
2023-02-02T15:10:12.274Z,5.72
2023-02-02T15:12:44.642Z,5.79
2023-02-02T15:15:23.798Z,5.74
2023-02-02T15:18:03.048Z,5.76
2023-02-02T15:20:35.438Z,5.63
2023-02-02T15:23:08.093Z,5.61
2023-02-02T15:25:40.260Z,5.53
2023-02-02T15:28:14.212Z,5.45
2023-02-02T15:30:49.555Z,5.23
2023-02-02T15:33:26.290Z,5.21
2023-02-02T15:35:56.704Z,5.14
2023-02-02T15:38:27.899Z,5.08
2023-02-02T15:40:57.416Z,5.33
2023-02-02T15:43:30.037Z,5.19
2023-02-02T15:46:05.760Z,5.19
2023-02-02T15:48:36.472Z,5.13
2023-02-02T15:51:07.874Z,5.06
2023-02-02T15:53:49.118Z,4.90
2023-02-02T15:56:24.326Z,4.84
2023-02-02T15:58:56.077Z,4.79
2023-02-02T16:01:29.030Z,4.78
2023-02-02T16:04:02.990Z,4.59
2023-02-02T16:06:34.786Z,4.63
2023-02-02T16:09:05.161Z,4.59
2023-02-02T16:11:34.633Z,4.51
2023-02-02T16:14:06.532Z,4.50
2023-02-02T16:16:39.896Z,4.38
2023-02-02T16:19:17.319Z,4.29
2023-02-02T16:21:53.245Z,4.25
2023-02-02T16:24:26.181Z,4.25
2023-02-02T16:26:57.385Z,4.19
2023-02-02T16:29:28.263Z,4.14
2023-02-02T16:32:00.613Z,4.05
2023-02-02T16:34:46.700Z,4.09
2023-02-02T16:37:17.885Z,4.10
2023-02-02T16:39:47.355Z,4.05
2023-02-02T16:42:26.758Z,3.96
2023-02-02T16:44:56.756Z,3.90
2023-02-02T16:47:40.631Z,3.82
2023-02-02T16:50:29.073Z,3.81
2023-02-02T16:53:00.998Z,3.78
2023-02-02T16:55:47.937Z,3.76
2023-02-02T16:58:21.230Z,3.71
2023-02-02T17:01:13.658Z,3.71
2023-02-02T17:03:51.351Z,3.67
2023-02-02T17:06:41.689Z,3.63
2023-02-02T17:09:19.413Z,3.66
2023-02-02T17:11:59.395Z,3.60
2023-02-02T17:14:33.164Z,3.58
2023-02-02T17:17:05.018Z,3.51
2023-02-02T17:19:37.039Z,3.49
2023-02-02T17:22:08.666Z,3.50
2023-02-02T17:24:38.110Z,3.49
2023-02-02T17:27:07.510Z,3.50
2023-02-02T17:29:37.364Z,3.51
2023-02-02T17:32:07.113Z,3.49
2023-02-02T17:34:39.095Z,3.51
2023-02-02T17:37:08.611Z,3.46
2023-02-02T17:39:38.253Z,3.78
2023-02-02T17:42:08.120Z,3.91
2023-02-02T17:44:37.522Z,3.73
2023-02-02T17:47:11.675Z,3.60
2023-02-02T17:49:43.659Z,3.48
2023-02-02T17:52:13.341Z,3.49
2023-02-02T17:54:42.712Z,3.48
2023-02-02T17:57:12.087Z,3.47
2023-02-02T17:59:41.512Z,3.53
2023-02-02T18:02:13.464Z,3.43
2023-02-02T18:04:45.854Z,3.46
2023-02-02T18:07:15.332Z,3.49
2023-02-02T18:09:44.759Z,3.51
2023-02-02T18:12:14.416Z,3.56
2023-02-02T18:14:43.836Z,3.51
2023-02-02T18:17:13.215Z,3.48
2023-02-02T18:19:46.858Z,3.47
2023-02-02T18:22:16.530Z,3.45
2023-02-02T18:24:45.950Z,3.46
2023-02-02T18:27:15.848Z,3.45
2023-02-02T18:29:45.397Z,3.49
2023-02-02T18:32:14.867Z,3.50
2023-02-02T18:34:51.303Z,3.53
2023-02-02T18:37:21.042Z,3.57
2023-02-02T18:39:50.493Z,3.56
2023-02-02T18:42:19.942Z,3.52
2023-02-02T18:44:49.399Z,3.53
2023-02-02T18:47:18.840Z,3.51
2023-02-02T18:49:50.872Z,3.50
2023-02-02T18:52:20.561Z,3.42
2023-02-02T18:54:50.404Z,3.48
2023-02-02T18:57:20.085Z,3.45
2023-02-02T19:03:35.976Z,3.49
2023-02-02T19:06:17.256Z,3.50
2023-02-02T19:08:46.703Z,3.50
2023-02-02T19:11:20.088Z,3.50
2023-02-02T19:17:51.213Z,3.50
2023-02-02T19:20:24.939Z,3.57
2023-02-02T19:22:56.967Z,3.55
2023-02-02T19:25:25.513Z,3.57
2023-02-02T19:27:53.898Z,3.55
2023-02-02T19:30:24.775Z,3.56
2023-02-02T19:32:54.986Z,3.58
2023-02-02T19:35:26.613Z,3.58
2023-02-02T19:38:01.836Z,3.62
2023-02-02T19:40:31.310Z,3.62
2023-02-02T19:43:26.073Z,3.63
2023-02-02T19:45:56.260Z,3.70
2023-02-02T19:48:30.730Z,3.72
2023-02-02T19:51:00.691Z,3.70
2023-02-02T19:53:37.680Z,3.67
2023-02-02T19:56:14.077Z,3.68
2023-02-02T19:58:43.605Z,3.62
2023-02-02T20:01:18.622Z,3.64
2023-02-02T20:03:51.071Z,3.64
2023-02-02T20:06:25.773Z,3.59
2023-02-02T20:08:55.768Z,3.61
2023-02-02T20:11:35.751Z,3.61
2023-02-02T20:14:06.195Z,3.61
2023-02-02T20:16:39.648Z,3.50
2023-02-02T20:19:18.712Z,3.46
2023-02-02T20:21:51.017Z,3.46
2023-02-02T20:24:21.715Z,3.43
2023-02-02T20:26:51.857Z,3.42
2023-02-02T20:29:22.970Z,3.40
2023-02-02T20:31:54.457Z,3.35
2023-02-02T20:34:30.304Z,3.35
2023-02-02T20:37:02.087Z,3.38
2023-02-02T20:39:36.039Z,3.31
2023-02-02T20:42:06.174Z,3.31
2023-02-02T20:44:37.134Z,3.32
2023-02-02T20:47:08.038Z,3.32
2023-02-02T20:49:40.462Z,3.30
2023-02-02T20:52:15.286Z,3.27
2023-02-02T20:54:44.681Z,3.26
2023-02-02T20:57:14.099Z,3.20
2023-02-02T20:59:43.510Z,3.20
2023-02-02T21:02:19.172Z,3.21
2023-02-02T21:04:51.990Z,3.24
2023-02-02T21:07:23.003Z,3.17
2023-02-02T21:09:53.557Z,3.27
2023-02-02T21:12:25.684Z,3.15
2023-02-02T21:14:55.277Z,3.15
2023-02-02T21:17:24.768Z,3.03
2023-02-02T21:19:56.790Z,3.09
2023-02-02T21:22:26.220Z,3.08
2023-02-02T21:24:55.638Z,3.10
2023-02-02T21:27:25.055Z,3.16
2023-02-02T21:29:54.491Z,3.14
2023-02-02T21:32:23.864Z,3.08
2023-02-02T21:34:55.851Z,3.06
2023-02-02T21:37:25.344Z,3.07
2023-02-02T21:39:59.643Z,3.02
2023-02-02T21:42:29.835Z,2.96
2023-02-02T21:45:00.351Z,3.01
2023-02-02T21:47:32.160Z,3.02
2023-02-02T21:50:15.206Z,2.88
2023-02-02T21:52:44.978Z,2.86
2023-02-02T21:55:36.651Z,2.90
2023-02-02T21:58:20.704Z,2.87
2023-02-02T22:00:51.240Z,2.90
2023-02-02T22:03:36.052Z,2.87
2023-02-02T22:06:24.635Z,2.91
2023-02-02T22:08:55.133Z,2.86
2023-02-02T22:11:31.272Z,2.86
2023-02-02T22:14:04.445Z,2.88
2023-02-02T22:16:38.826Z,2.85
2023-02-02T22:19:21.083Z,2.83
2023-02-02T22:21:54.028Z,2.78
2023-02-02T22:24:23.428Z,2.81
2023-02-02T22:26:52.858Z,2.91
2023-02-02T22:29:24.579Z,2.87
2023-02-02T22:31:54.053Z,2.94
2023-02-02T22:34:23.494Z,2.91
2023-02-02T22:36:55.466Z,2.88
2023-02-02T22:39:24.874Z,2.82
2023-02-02T22:41:54.357Z,2.81
2023-02-02T22:44:23.762Z,2.88
2023-02-02T22:46:53.186Z,2.93
2023-02-02T22:49:22.612Z,2.88
2023-02-02T22:51:54.127Z,2.83
2023-02-02T22:54:26.264Z,2.90
2023-02-02T22:56:55.706Z,2.84
2023-02-02T22:59:25.116Z,2.80
2023-02-02T23:01:54.481Z,2.83
2023-02-02T23:04:23.891Z,2.80
2023-02-02T23:06:53.272Z,2.89
2023-02-02T23:09:22.663Z,2.84
2023-02-02T23:11:54.646Z,2.88
2023-02-02T23:14:24.079Z,2.87
2023-02-02T23:16:53.493Z,2.95
2023-02-02T23:19:22.903Z,2.99
2023-02-02T23:21:52.515Z,3.07
2023-02-02T23:24:21.921Z,3.00
2023-02-02T23:26:53.939Z,3.03
2023-02-02T23:29:23.375Z,3.09
2023-02-02T23:31:52.827Z,3.08
2023-02-02T23:34:22.242Z,3.02
2023-02-02T23:36:53.610Z,3.03
2023-02-02T23:39:23.098Z,3.04
2023-02-02T23:41:55.038Z,3.08
2023-02-02T23:44:24.457Z,3.18
2023-02-02T23:46:54.335Z,3.19
2023-02-02T23:49:24.163Z,3.20
2023-02-02T23:51:53.588Z,3.32
2023-02-02T23:54:23.017Z,3.36
2023-02-02T23:56:55.354Z,3.50
2023-02-02T23:59:24.861Z,3.58
